Time;durP1;ratioP1;P1;durP2;ratioP2;P2;SDS_P1;SDS_P2;PMS_P1;PMS_P2;Temp;Humidity;BMP_temperature;BMP_pressure;BME280_temperature;BME280_humidity;BME280_pressure;Samples;Min_cycle;Max_cycle;Signal;HPM_P1;HPM_P2
2023/09/26 00:00:41;;;;;;;4.13;2.20;;;;;;;6.48;100.00;93616.59;2107219;28;20039;-83
2023/09/26 00:01:42;;;;;;;4.50;2.10;;;;;;;6.42;100.00;93621.53;2097650;28;20020;-83
2023/09/26 00:02:43;;;;;;;5.90;2.38;;;;;;;6.43;100.00;93622.28;2089667;28;20052;-83
2023/09/26 00:03:44;;;;;;;3.45;2.40;;;;;;;6.39;100.00;93621.53;2094006;28;20091;-84
2023/09/26 00:04:47;;;;;;;4.57;2.20;;;;;;;6.40;100.00;93623.78;2098127;28;20040;-83
2023/09/26 00:05:52;;;;;;;3.22;1.92;;;;;;;6.42;100.00;93626.09;2106281;28;20484;-84
2023/09/26 00:06:57;;;;;;;2.92;2.25;;;;;;;6.33;100.00;93625.69;2098305;28;20020;-84
2023/09/26 00:08:03;;;;;;;4.82;2.05;;;;;;;6.31;100.00;93623.38;2099122;28;20111;-84
2023/09/26 00:09:05;;;;;;;2.47;1.80;;;;;;;6.29;100.00;93621.13;2099285;28;20069;-84
2023/09/26 00:10:07;;;;;;;2.10;1.90;;;;;;;6.31;100.00;93624.16;2097914;28;20023;-83
2023/09/26 00:11:08;;;;;;;3.30;2.10;;;;;;;6.26;100.00;93623.75;2098094;28;20380;-84
2023/09/26 00:12:09;;;;;;;2.20;1.95;;;;;;;6.19;100.00;93627.16;2095153;28;20025;-84
2023/09/26 00:13:10;;;;;;;3.20;2.22;;;;;;;6.22;100.00;93630.94;2097800;28;20031;-84
2023/09/26 00:14:11;;;;;;;2.55;1.88;;;;;;;6.33;100.00;93629.09;2098021;28;20023;-84
2023/09/26 00:15:12;;;;;;;2.88;2.08;;;;;;;6.23;100.00;93622.63;2089486;28;20078;-84
2023/09/26 00:16:14;;;;;;;3.97;1.92;;;;;;;6.22;100.00;93623.75;2097734;28;20416;-84
2023/09/26 00:17:17;;;;;;;4.60;2.00;;;;;;;6.25;100.00;93630.22;2095183;28;20162;-84
2023/09/26 00:18:18;;;;;;;4.35;2.38;;;;;;;6.22;100.00;93630.94;2090030;28;20025;-83
2023/09/26 00:19:19;;;;;;;3.80;1.98;;;;;;;6.21;100.00;93624.88;2089743;28;20059;-84
2023/09/26 00:20:39;;;;;;;3.65;1.70;;;;;;;6.24;100.00;93624.16;2099095;28;20069;-84
2023/09/26 00:21:41;;;;;;;4.60;1.90;;;;;;;6.12;100.00;93627.13;2112449;28;20019;-83
2023/09/26 00:22:42;;;;;;;3.40;1.90;;;;;;;6.18;100.00;93622.97;2089276;28;20116;-83
2023/09/26 00:23:43;;;;;;;3.55;2.03;;;;;;;6.21;100.00;93626.78;2097179;28;20091;-83
2023/09/26 00:24:44;;;;;;;2.20;1.88;;;;;;;6.15;100.00;93626.41;2089341;28;20021;-85
2023/09/26 00:25:46;;;;;;;3.45;2.20;;;;;;;6.11;100.00;93620.31;2088101;28;20497;-84
2023/09/26 00:26:47;;;;;;;2.35;1.90;;;;;;;6.10;100.00;93623.31;2087916;28;20029;-83
2023/09/26 00:27:48;;;;;;;3.08;2.05;;;;;;;5.97;100.00;93615.72;2081266;28;20025;-84
2023/09/26 00:28:48;;;;;;;5.25;2.47;;;;;;;6.06;100.00;93620.69;2085921;28;20017;-84
2023/09/26 00:29:49;;;;;;;5.13;2.13;;;;;;;6.14;100.00;93621.44;2106038;28;20376;-83
2023/09/26 00:30:50;;;;;;;3.83;2.30;;;;;;;6.20;100.00;93619.97;2097258;28;20619;-83
2023/09/26 00:31:51;;;;;;;3.05;2.13;;;;;;;6.10;100.00;93610.06;2097638;28;20059;-84
2023/09/26 00:32:52;;;;;;;3.83;1.85;;;;;;;6.13;100.00;93615.38;2099764;28;20027;-83
2023/09/26 00:33:53;;;;;;;4.45;2.05;;;;;;;6.20;100.00;93627.94;2114288;28;20019;-84
2023/09/26 00:34:54;;;;;;;4.38;2.17;;;;;;;6.07;100.00;93614.22;2114046;28;20053;-84
2023/09/26 00:35:55;;;;;;;4.47;1.88;;;;;;;6.15;100.00;93618.44;2089509;28;20021;-83
2023/09/26 00:36:56;;;;;;;2.83;2.15;;;;;;;6.17;100.00;93628.66;2092057;28;20078;-83
2023/09/26 00:37:57;;;;;;;5.15;2.00;;;;;;;6.14;100.00;93618.78;2097530;28;20020;-84
2023/09/26 00:38:58;;;;;;;3.25;1.88;;;;;;;6.09;100.00;93621.81;2087086;28;20017;-84
2023/09/26 00:39:59;;;;;;;2.00;1.70;;;;;;;6.15;100.00;93617.69;2089116;28;20028;-83
2023/09/26 00:41:00;;;;;;;2.15;1.80;;;;;;;6.16;100.00;93622.59;2097567;28;20027;-84
2023/09/26 00:42:01;;;;;;;4.43;1.95;;;;;;;6.15;100.00;93621.09;2100879;28;20016;-83
2023/09/26 00:43:02;;;;;;;2.72;1.80;;;;;;;6.14;100.00;93618.78;2094576;28;20028;-83
2023/09/26 00:44:04;;;;;;;2.67;1.80;;;;;;;6.10;100.00;93620.66;2095778;28;20097;-83
2023/09/26 00:45:06;;;;;;;3.70;2.22;;;;;;;6.09;100.00;93619.91;2114148;28;20099;-83
2023/09/26 00:46:10;;;;;;;3.40;2.10;;;;;;;6.11;100.00;93620.31;2097693;28;20086;-83
2023/09/26 00:47:11;;;;;;;3.50;2.00;;;;;;;6.20;100.00;93612.00;2089997;28;20518;-83
2023/09/26 00:48:12;;;;;;;5.38;1.98;;;;;;;6.19;100.00;93615.75;2097728;28;20031;-83
2023/09/26 00:49:13;;;;;;;1.85;1.60;;;;;;;6.16;100.00;93611.22;2105782;28;20135;-83
2023/09/26 00:50:14;;;;;;;4.90;2.15;;;;;;;6.09;100.00;93617.25;2103172;28;20056;-84
2023/09/26 00:51:15;;;;;;;2.30;1.70;;;;;;;6.09;100.00;93613.84;2097686;28;20509;-84
2023/09/26 00:52:16;;;;;;;3.67;1.70;;;;;;;6.16;100.00;93608.56;2094422;28;20024;-84
2023/09/26 00:53:19;;;;;;;2.88;1.90;;;;;;;6.14;100.00;93613.47;2090304;28;20044;-83
2023/09/26 00:54:20;;;;;;;3.65;1.90;;;;;;;6.02;100.00;93612.69;2081629;28;20104;-83
2023/09/26 00:55:22;;;;;;;3.35;1.85;;;;;;;6.13;100.00;93606.66;2092365;28;20020;-84
2023/09/26 00:56:24;;;;;;;3.13;2.05;;;;;;;6.11;100.00;93609.69;2089792;28;20021;-84
2023/09/26 00:57:25;;;;;;;2.90;2.03;;;;;;;6.15;100.00;93609.72;2105480;28;20469;-84
2023/09/26 00:58:29;;;;;;;5.90;1.73;;;;;;;6.04;100.00;93609.66;2113172;28;20031;-83
2023/09/26 00:59:31;;;;;;;2.25;1.70;;;;;;;6.13;100.00;93614.63;2089528;28;20024;-84
2023/09/26 01:00:32;;;;;;;2.40;1.90;;;;;;;6.17;100.00;93608.19;2095741;27;20408;-84
2023/09/26 01:01:35;;;;;;;2.63;1.95;;;;;;;6.17;100.00;93604.78;2105978;28;20032;-84
2023/09/26 01:02:36;;;;;;;3.33;1.65;;;;;;;6.13;100.00;93609.31;2097560;28;20104;-83
2023/09/26 01:03:38;;;;;;;2.35;2.10;;;;;;;6.05;100.00;93613.84;2088391;28;20047;-84
2023/09/26 01:04:39;;;;;;;2.78;1.75;;;;;;;6.05;100.00;93603.22;2097418;28;20112;-83
2023/09/26 01:05:40;;;;;;;2.63;1.77;;;;;;;6.02;100.00;93604.75;2092071;28;20025;-84
2023/09/26 01:06:41;;;;;;;2.40;1.90;;;;;;;6.01;100.00;93607.75;2089540;28;20025;-84
2023/09/26 01:07:44;;;;;;;2.63;1.90;;;;;;;6.00;100.00;93614.19;2081630;28;20021;-84
2023/09/26 01:08:45;;;;;;;3.95;2.00;;;;;;;5.98;100.00;93609.28;2100609;28;20325;-84
2023/09/26 01:09:46;;;;;;;2.00;1.60;;;;;;;5.98;100.00;93605.88;2097269;28;20478;-85
2023/09/26 01:10:47;;;;;;;2.67;1.98;;;;;;;6.04;100.00;93618.38;2089807;28;20119;-85
2023/09/26 01:11:48;;;;;;;2.95;1.83;;;;;;;6.05;100.00;93614.59;2096611;28;20136;-84
2023/09/26 01:12:50;;;;;;;3.25;1.92;;;;;;;6.00;100.00;93614.19;2089261;28;20028;-83
2023/09/26 01:13:55;;;;;;;2.58;2.05;;;;;;;6.01;100.00;93613.06;2097476;28;20047;-83
2023/09/26 01:14:56;;;;;;;2.22;1.67;;;;;;;5.98;100.00;93617.22;2110229;28;20827;-84
2023/09/26 01:15:57;;;;;;;3.40;1.60;;;;;;;5.90;100.00;93614.91;2097876;28;20060;-84
2023/09/26 01:16:59;;;;;;;2.75;1.90;;;;;;;5.93;100.00;93614.94;2113802;28;20049;-83
2023/09/26 01:18:00;;;;;;;2.42;1.90;;;;;;;6.02;100.00;93619.91;2108609;28;20061;-83
2023/09/26 01:19:01;;;;;;;2.33;1.92;;;;;;;5.85;100.00;93613.38;2108647;28;20024;-85
2023/09/26 01:20:14;;;;;;;1.85;1.75;;;;;;;5.93;100.00;93612.28;2097257;28;20511;-84
2023/09/26 01:21:15;;;;;;;2.50;1.85;;;;;;;5.91;100.00;93608.44;2092542;28;20029;-84
2023/09/26 01:22:18;;;;;;;3.95;2.00;;;;;;;5.89;100.00;93613.38;2093686;28;20028;-84
2023/09/26 01:23:25;;;;;;;1.98;1.60;;;;;;;5.99;100.00;93604.72;2102707;28;20059;-85
2023/09/26 01:24:26;;;;;;;4.75;1.70;;;;;;;6.05;100.00;93601.31;2098886;28;20055;-83
2023/09/26 01:25:27;;;;;;;2.15;1.70;;;;;;;5.97;100.00;93607.75;2105569;28;20043;-83
2023/09/26 01:26:37;;;;;;;3.30;1.88;;;;;;;5.95;100.00;93601.28;2097278;28;20449;-83
2023/09/26 01:27:38;;;;;;;2.50;1.83;;;;;;;6.01;100.00;93605.88;2089640;28;20040;-84
2023/09/26 01:28:40;;;;;;;2.13;1.77;;;;;;;5.93;100.00;93604.34;2109304;28;20076;-82
2023/09/26 01:29:41;;;;;;;2.67;1.92;;;;;;;5.96;100.00;93608.88;2097648;28;20460;-84
2023/09/26 01:30:42;;;;;;;3.25;1.60;;;;;;;6.01;100.00;93603.22;2083629;28;20025;-83
2023/09/26 01:31:43;;;;;;;4.20;1.95;;;;;;;5.96;100.00;93603.56;2080760;28;20064;-83
2023/09/26 01:32:46;;;;;;;2.42;1.95;;;;;;;5.87;100.00;93603.13;2080918;28;20040;-83
2023/09/26 01:33:47;;;;;;;2.40;1.52;;;;;;;5.84;100.00;93605.75;2092427;28;20024;-83
2023/09/26 01:34:48;;;;;;;2.25;1.60;;;;;;;5.89;100.00;93600.13;2089603;28;20025;-83
2023/09/26 01:35:51;;;;;;;1.83;1.70;;;;;;;5.94;100.00;93600.53;2099186;28;20017;-84
2023/09/26 01:36:52;;;;;;;2.40;1.77;;;;;;;5.87;100.00;93597.81;2104279;28;20024;-84
2023/09/26 01:37:53;;;;;;;2.97;1.70;;;;;;;5.89;100.00;93598.22;2088853;28;20056;-84
2023/09/26 01:38:56;;;;;;;3.35;1.60;;;;;;;5.88;100.00;93595.94;2097122;28;20107;-84
2023/09/26 01:39:57;;;;;;;2.90;1.85;;;;;;;5.83;100.00;93597.03;2089489;28;20021;-84
2023/09/26 01:40:58;;;;;;;2.03;1.70;;;;;;;5.76;100.00;93605.00;2089234;28;20454;-83
2023/09/26 01:41:59;;;;;;;3.95;1.60;;;;;;;5.69;100.00;93602.28;2091120;28;20049;-83
2023/09/26 01:43:00;;;;;;;1.88;1.67;;;;;;;5.78;100.00;93602.72;2102736;28;20024;-83
2023/09/26 01:44:01;;;;;;;2.58;1.83;;;;;;;5.79;100.00;93602.34;2098663;28;20033;-83
2023/09/26 01:45:03;;;;;;;3.10;1.88;;;;;;;5.80;100.00;93592.50;2097217;28;20020;-84
2023/09/26 01:46:04;;;;;;;1.88;1.58;;;;;;;5.80;100.00;93605.78;2088948;28;20021;-84
2023/09/26 01:47:04;;;;;;;2.40;1.60;;;;;;;5.85;100.00;93599.34;2099753;28;20024;-85
2023/09/26 01:48:06;;;;;;;2.42;1.50;;;;;;;5.81;100.00;93599.31;2112534;28;20038;-84
2023/09/26 01:49:07;;;;;;;2.80;1.75;;;;;;;5.74;100.00;93605.34;2099288;28;20127;-85
2023/09/26 01:50:08;;;;;;;1.67;1.55;;;;;;;5.70;100.00;93598.50;2088471;28;20405;-84
2023/09/26 01:51:10;;;;;;;1.98;1.60;;;;;;;5.75;100.00;93596.28;2080655;28;20425;-84
2023/09/26 01:52:11;;;;;;;4.90;1.80;;;;;;;5.69;100.00;93599.66;2092770;28;20028;-84
2023/09/26 01:53:13;;;;;;;2.25;1.42;;;;;;;5.80;100.00;93601.22;2097059;28;20492;-84
2023/09/26 01:54:14;;;;;;;2.33;1.60;;;;;;;5.82;100.00;93590.22;2088812;28;20018;-83
2023/09/26 01:55:18;;;;;;;2.58;1.60;;;;;;;5.82;100.00;93603.50;2090261;28;20401;-83
2023/09/26 01:56:19;;;;;;;2.20;1.83;;;;;;;5.77;100.00;93595.91;2089464;28;20043;-83
2023/09/26 01:57:20;;;;;;;4.55;1.70;;;;;;;5.70;100.00;93593.19;2088794;28;20035;-84
2023/09/26 01:58:21;;;;;;;3.42;1.80;;;;;;;5.72;100.00;93598.91;2090194;28;20036;-83
2023/09/26 01:59:22;;;;;;;1.92;1.73;;;;;;;5.67;100.00;93599.28;2080688;28;20415;-83
2023/09/26 02:00:23;;;;;;;2.88;1.55;;;;;;;5.58;100.00;93593.53;2088853;28;20025;-83
2023/09/26 02:01:24;;;;;;;2.42;1.70;;;;;;;5.60;100.00;93593.91;2088847;28;20020;-83
2023/09/26 02:02:25;;;;;;;2.42;1.40;;;;;;;5.68;100.00;93595.47;2102529;28;20028;-83
2023/09/26 02:03:26;;;;;;;2.80;1.75;;;;;;;5.73;100.00;93598.53;2105332;28;20102;-83
2023/09/26 02:04:27;;;;;;;2.08;1.75;;;;;;;5.72;100.00;93606.88;2095372;28;20094;-83
2023/09/26 02:05:28;;;;;;;2.25;1.73;;;;;;;5.69;100.00;93607.59;2101942;28;20042;-83
2023/09/26 02:06:29;;;;;;;1.83;1.52;;;;;;;5.66;100.00;93601.13;2105577;28;20020;-83
2023/09/26 02:07:30;;;;;;;1.90;1.50;;;;;;;5.68;100.00;93596.22;2096890;28;20032;-84
2023/09/26 02:08:31;;;;;;;3.42;1.70;;;;;;;5.64;100.00;93597.34;2088712;28;20106;-83
2023/09/26 02:09:32;;;;;;;2.65;1.83;;;;;;;5.68;100.00;93598.13;2105549;28;20024;-83
2023/09/26 02:10:33;;;;;;;2.15;1.60;;;;;;;5.59;100.00;93597.72;2105505;28;20382;-83
2023/09/26 02:11:34;;;;;;;3.90;1.85;;;;;;;5.60;100.00;93592.03;2096972;28;20102;-83
2023/09/26 02:12:37;;;;;;;2.97;1.58;;;;;;;5.54;100.00;93591.63;2088732;28;20027;-84
2023/09/26 02:13:38;;;;;;;2.55;1.77;;;;;;;5.56;100.00;93594.66;2097608;28;20330;-83
2023/09/26 02:14:45;;;;;;;4.43;1.58;;;;;;;5.60;100.00;93592.03;2096896;28;20052;-84
2023/09/26 02:15:46;;;;;;;3.70;2.03;;;;;;;5.61;100.00;93595.44;2096671;28;20503;-84
2023/09/26 02:16:47;;;;;;;3.90;2.63;;;;;;;5.47;100.00;93594.22;2088552;28;20032;-84
2023/09/26 02:17:48;;;;;;;3.10;2.28;;;;;;;5.42;100.00;93593.84;2090712;28;20025;-84
2023/09/26 02:18:49;;;;;;;2.50;1.95;;;;;;;5.49;100.00;93596.53;2101921;28;20103;-84
2023/09/26 02:19:50;;;;;;;2.03;1.67;;;;;;;5.52;100.00;93591.22;2088801;28;20344;-84
2023/09/26 02:20:51;;;;;;;2.42;1.77;;;;;;;5.51;100.00;93595.00;2088650;28;20025;-84
2023/09/26 02:23:16;;;;;;;;;;;;;;;5.08;100.00;93598.53;2139522;27;20257;-85
2023/09/26 02:24:17;;;;;;;2.83;1.70;;;;;;;5.08;100.00;93599.31;2122883;27;19964;-82
2023/09/26 02:25:19;;;;;;;2.58;1.60;;;;;;;5.17;100.00;93591.78;2107221;28;20027;-82
2023/09/26 02:26:20;;;;;;;3.67;2.00;;;;;;;5.21;100.00;93594.47;2113053;27;20016;-83
2023/09/26 02:27:21;;;;;;;3.67;1.80;;;;;;;5.09;100.00;93592.88;2120951;27;20019;-83
2023/09/26 02:28:22;;;;;;;2.15;1.90;;;;;;;4.98;100.00;93594.69;2119564;28;20019;-82
2023/09/26 02:29:23;;;;;;;2.20;1.70;;;;;;;5.01;100.00;93593.97;2120628;27;20028;-83
2023/09/26 02:30:26;;;;;;;2.47;1.90;;;;;;;5.00;100.00;93597.72;2129452;27;20052;-83
2023/09/26 02:31:27;;;;;;;2.38;1.92;;;;;;;4.94;100.00;93601.84;2121272;27;20065;-82
2023/09/26 02:32:28;;;;;;;3.20;1.77;;;;;;;4.99;100.00;93591.66;2112475;28;20012;-84
2023/09/26 02:33:29;;;;;;;4.80;2.30;;;;;;;4.97;100.00;93595.84;2112778;27;20561;-83
2023/09/26 02:34:29;;;;;;;1.95;1.60;;;;;;;5.00;100.00;93589.78;2112752;28;20069;-82
2023/09/26 02:35:31;;;;;;;2.55;1.52;;;;;;;4.99;100.00;93593.56;2112325;28;20027;-82
2023/09/26 02:36:33;;;;;;;3.60;1.67;;;;;;;4.92;100.00;93593.53;2104536;28;20024;-83
2023/09/26 02:37:34;;;;;;;2.92;1.70;;;;;;;4.95;100.00;93590.13;2110824;27;20016;-83
2023/09/26 02:38:35;;;;;;;2.17;1.95;;;;;;;4.92;100.00;93589.00;2111500;28;20028;-83
2023/09/26 02:39:36;;;;;;;3.08;1.90;;;;;;;4.94;100.00;93584.06;2104436;28;20020;-82
2023/09/26 02:40:37;;;;;;;2.72;2.15;;;;;;;4.90;100.00;93585.94;2108115;28;20062;-82
2023/09/26 02:41:38;;;;;;;2.65;1.85;;;;;;;4.88;100.00;93580.25;2116461;28;20019;-83
2023/09/26 02:42:43;;;;;;;2.72;1.65;;;;;;;4.92;100.00;93580.28;2122515;27;20034;-83
2023/09/26 02:43:44;;;;;;;2.15;1.60;;;;;;;4.99;100.00;93581.06;2119841;27;20024;-82
2023/09/26 02:44:45;;;;;;;2.25;1.58;;;;;;;4.87;100.00;93578.72;2112592;28;20035;-82
2023/09/26 02:45:46;;;;;;;2.78;1.42;;;;;;;4.97;100.00;93580.69;2120502;28;20364;-82
2023/09/26 02:46:47;;;;;;;2.00;1.60;;;;;;;5.03;100.00;93578.44;2112668;28;20093;-82
2023/09/26 02:47:48;;;;;;;3.45;1.70;;;;;;;4.98;100.00;93578.81;2120855;27;20020;-82
2023/09/26 02:48:49;;;;;;;2.45;1.77;;;;;;;4.97;100.00;93590.53;2129393;27;20201;-82
2023/09/26 02:49:50;;;;;;;2.40;1.60;;;;;;;4.89;100.00;93578.38;2120818;28;20460;-82
2023/09/26 02:50:51;;;;;;;2.03;1.65;;;;;;;4.92;100.00;93593.53;2112152;28;20020;-82
2023/09/26 02:51:52;;;;;;;2.47;1.60;;;;;;;4.93;100.00;93579.16;2104535;28;20028;-82
2023/09/26 02:52:53;;;;;;;4.40;1.92;;;;;;;4.98;100.00;93579.56;2120948;27;20108;-82
2023/09/26 02:53:54;;;;;;;2.10;1.90;;;;;;;4.94;100.00;93586.72;2125497;27;20019;-82
2023/09/26 02:54:55;;;;;;;3.33;1.48;;;;;;;4.91;100.00;93584.03;2112643;28;20036;-82
2023/09/26 02:55:55;;;;;;;3.20;1.88;;;;;;;4.90;100.00;93585.16;2112563;27;20020;-82
2023/09/26 02:56:58;;;;;;;2.38;1.90;;;;;;;4.85;100.00;93582.88;2112073;28;20433;-81
2023/09/26 02:57:58;;;;;;;2.17;1.45;;;;;;;4.83;100.00;93588.53;2112544;28;20150;-82
2023/09/26 02:58:59;;;;;;;1.70;1.60;;;;;;;4.89;100.00;93587.06;2110307;28;20027;-83
2023/09/26 03:00:04;;;;;;;2.50;1.60;;;;;;;4.92;100.00;93586.34;2112395;28;20456;-82
2023/09/26 03:01:05;;;;;;;2.88;1.83;;;;;;;4.92;100.00;93581.03;2112821;28;20024;-82
2023/09/26 03:02:07;;;;;;;3.55;1.98;;;;;;;4.93;100.00;93579.91;2115111;27;20024;-83
2023/09/26 03:03:08;;;;;;;3.63;1.92;;;;;;;4.90;100.00;93574.56;2120982;27;20031;-83
2023/09/26 03:04:09;;;;;;;1.60;1.48;;;;;;;4.90;100.00;93580.63;2112124;27;20015;-82
2023/09/26 03:05:11;;;;;;;3.72;1.90;;;;;;;4.89;100.00;93581.78;2112148;28;20031;-82
2023/09/26 03:06:11;;;;;;;1.85;1.70;;;;;;;4.85;100.00;93580.97;2116603;28;20089;-83
2023/09/26 03:07:14;;;;;;;2.22;1.88;;;;;;;4.87;100.00;93580.59;2112588;27;20106;-82
2023/09/26 03:08:15;;;;;;;4.75;1.95;;;;;;;4.89;100.00;93588.97;2125798;27;20029;-82
2023/09/26 03:09:16;;;;;;;2.38;1.80;;;;;;;4.94;100.00;93584.06;2119818;28;20023;-82
2023/09/26 03:10:18;;;;;;;3.08;1.90;;;;;;;4.87;100.00;93584.00;2104898;28;20020;-82
2023/09/26 03:11:19;;;;;;;3.05;1.80;;;;;;;4.90;100.00;93590.47;2114020;27;20569;-83
2023/09/26 03:12:20;;;;;;;2.40;1.60;;;;;;;4.85;100.00;93582.88;2124394;27;20058;-82
2023/09/26 03:13:21;;;;;;;3.38;1.80;;;;;;;4.94;100.00;93586.72;2112439;28;20054;-82
2023/09/26 03:14:23;;;;;;;2.20;1.77;;;;;;;5.00;100.00;93581.81;2120723;27;20019;-82
2023/09/26 03:15:24;;;;;;;2.88;1.70;;;;;;;4.99;100.00;93583.72;2116048;28;20413;-83
2023/09/26 03:16:28;;;;;;;2.38;1.90;;;;;;;4.95;100.00;93584.81;2112955;27;20027;-82
2023/09/26 03:17:29;;;;;;;3.95;1.73;;;;;;;4.93;100.00;93579.16;2120458;27;20019;-82
2023/09/26 03:18:30;;;;;;;2.95;1.95;;;;;;;4.96;100.00;93578.41;2103612;28;20028;-83
2023/09/26 03:19:31;;;;;;;1.98;1.80;;;;;;;4.99;100.00;93575.00;2104130;28;20031;-82
2023/09/26 03:20:36;;;;;;;2.65;1.88;;;;;;;4.98;100.00;93581.44;2098863;28;20088;-82
2023/09/26 03:21:38;;;;;;;2.10;1.70;;;;;;;4.95;100.00;93580.28;2105142;28;20024;-82
2023/09/26 03:22:38;;;;;;;2.30;1.63;;;;;;;4.94;100.00;93578.00;2112031;27;20040;-82
2023/09/26 03:23:40;;;;;;;2.00;1.77;;;;;;;4.96;100.00;93581.03;2111744;28;20049;-82
2023/09/26 03:24:40;;;;;;;3.63;1.67;;;;;;;4.93;100.00;93582.56;2103820;28;20024;-84
2023/09/26 03:25:41;;;;;;;1.70;1.45;;;;;;;4.90;100.00;93583.28;2095453;28;20024;-82
2023/09/26 03:26:42;;;;;;;4.22;1.80;;;;;;;4.86;100.00;93579.84;2112186;28;20401;-82
2023/09/26 03:27:46;;;;;;;1.92;1.60;;;;;;;4.94;100.00;93580.66;2128181;27;20050;-82
2023/09/26 03:28:47;;;;;;;4.75;1.80;;;;;;;4.84;100.00;93587.41;2110420;28;20078;-83
2023/09/26 03:29:51;;;;;;;2.88;1.98;;;;;;;4.87;100.00;93577.94;2120782;28;20046;-82
2023/09/26 03:30:54;;;;;;;2.10;1.85;;;;;;;4.86;100.00;93574.53;2112362;28;20022;-82
2023/09/26 03:31:55;;;;;;;2.67;1.75;;;;;;;4.85;100.00;93577.56;2104601;28;20121;-82
2023/09/26 03:32:56;;;;;;;1.83;1.55;;;;;;;4.89;100.00;93579.13;2118611;28;20049;-81
2023/09/26 03:33:56;;;;;;;3.00;1.70;;;;;;;4.80;100.00;93576.03;2102344;28;20111;-82
2023/09/26 03:34:57;;;;;;;2.30;1.80;;;;;;;4.85;100.00;93569.63;2098032;28;20049;-83
2023/09/26 03:35:59;;;;;;;3.58;1.63;;;;;;;4.85;100.00;93572.28;2105229;28;20020;-83
2023/09/26 03:37:00;;;;;;;1.90;1.45;;;;;;;4.85;100.00;93573.03;2104780;28;20181;-82
2023/09/26 03:38:01;;;;;;;2.25;1.80;;;;;;;4.88;100.00;93567.00;2098044;28;20081;-82
2023/09/26 03:39:03;;;;;;;3.97;2.40;;;;;;;4.90;100.00;93570.03;2102749;28;20044;-82
2023/09/26 03:40:04;;;;;;;3.17;2.13;;;;;;;4.90;100.00;93572.69;2098228;28;20035;-82
2023/09/26 03:41:09;;;;;;;1.85;1.60;;;;;;;4.89;100.00;93565.88;2106276;28;20032;-82
2023/09/26 03:42:10;;;;;;;2.92;1.77;;;;;;;4.88;100.00;93567.00;2114615;28;20023;-82
2023/09/26 03:43:11;;;;;;;3.50;1.65;;;;;;;4.86;100.00;93568.50;2106236;28;20401;-82
2023/09/26 03:44:12;;;;;;;2.42;1.67;;;;;;;4.80;100.00;93565.44;2104033;28;20543;-82
2023/09/26 03:45:13;;;;;;;1.90;1.60;;;;;;;4.77;100.00;93560.88;2114740;28;20019;-83
2023/09/26 03:46:14;;;;;;;2.20;1.70;;;;;;;4.71;100.00;93560.44;2114224;28;20088;-84
2023/09/26 03:47:15;;;;;;;2.67;1.65;;;;;;;4.76;100.00;93569.94;2098010;28;20032;-82
2023/09/26 03:48:16;;;;;;;4.45;1.95;;;;;;;4.76;100.00;93576.00;2111401;28;20092;-82
2023/09/26 03:49:16;;;;;;;3.80;2.03;;;;;;;4.75;100.00;93571.84;2099529;28;20562;-83
2023/09/26 03:50:18;;;;;;;3.75;1.80;;;;;;;4.77;100.00;93571.47;2089603;28;20037;-82
2023/09/26 03:51:19;;;;;;;2.20;1.98;;;;;;;4.77;100.00;93574.09;2089798;28;20456;-83
2023/09/26 03:52:20;;;;;;;4.05;1.83;;;;;;;4.73;100.00;93576.72;2093920;28;20028;-83
2023/09/26 03:53:21;;;;;;;2.08;1.70;;;;;;;4.72;100.00;93574.44;2098194;28;20020;-83
2023/09/26 03:54:22;;;;;;;2.70;1.63;;;;;;;4.70;100.00;93574.81;2090593;28;20108;-83
2023/09/26 03:55:23;;;;;;;2.58;1.80;;;;;;;4.68;100.00;93576.31;2097886;28;20042;-82
2023/09/26 03:56:24;;;;;;;2.63;1.70;;;;;;;4.64;100.00;93575.50;2097972;28;20029;-82
2023/09/26 03:57:25;;;;;;;3.15;1.58;;;;;;;4.64;100.00;93573.63;2093367;28;20051;-82
2023/09/26 03:58:26;;;;;;;2.47;1.70;;;;;;;4.65;100.00;93584.97;2111010;28;20027;-82
2023/09/26 03:59:27;;;;;;;2.15;1.80;;;;;;;4.66;100.00;93571.38;2106256;28;20465;-82
2023/09/26 04:00:29;;;;;;;3.03;2.13;;;;;;;4.68;100.00;93571.78;2108736;28;20075;-82
2023/09/26 04:01:30;;;;;;;2.95;1.60;;;;;;;4.66;100.00;93574.03;2114536;28;20020;-83
2023/09/26 04:02:31;;;;;;;4.00;2.13;;;;;;;4.63;100.00;93571.34;2103777;28;20024;-82
2023/09/26 04:03:32;;;;;;;1.88;1.70;;;;;;;4.64;100.00;93575.50;2106096;28;20035;-82
2023/09/26 04:04:33;;;;;;;2.90;1.85;;;;;;;4.70;100.00;93574.06;2097925;28;20082;-82
2023/09/26 04:05:34;;;;;;;3.38;1.90;;;;;;;4.62;100.00;93569.84;2097725;28;20035;-84
2023/09/26 04:06:35;;;;;;;3.83;1.58;;;;;;;4.69;100.00;93572.53;2098132;28;20027;-83
2023/09/26 04:07:37;;;;;;;2.13;1.85;;;;;;;4.68;100.00;93568.38;2107921;28;20450;-82
2023/09/26 04:08:38;;;;;;;4.03;1.80;;;;;;;4.69;100.00;93564.59;2093366;28;20024;-82
2023/09/26 04:09:39;;;;;;;2.45;1.60;;;;;;;4.67;100.00;93569.50;2098090;28;20029;-82
2023/09/26 04:10:40;;;;;;;4.25;1.98;;;;;;;4.64;100.00;93568.34;2093945;28;20024;-82
2023/09/26 04:11:41;;;;;;;2.40;1.67;;;;;;;4.63;100.00;93558.88;2098130;28;20017;-82
2023/09/26 04:12:43;;;;;;;4.70;1.80;;;;;;;4.58;100.00;93563.75;2090369;28;20029;-82
2023/09/26 04:13:44;;;;;;;4.18;1.95;;;;;;;4.60;100.00;93564.13;2100183;27;20477;-82
2023/09/26 04:14:45;;;;;;;4.13;1.90;;;;;;;4.59;100.00;93567.91;2114483;28;20098;-82
2023/09/26 04:15:46;;;;;;;2.00;1.77;;;;;;;4.59;100.00;93565.25;2105889;28;20077;-82
2023/09/26 04:16:47;;;;;;;3.60;1.80;;;;;;;4.63;100.00;93568.72;2106034;28;20131;-82
2023/09/26 04:17:49;;;;;;;2.80;1.80;;;;;;;4.66;100.00;93566.09;2089643;28;20016;-83
2023/09/26 04:18:50;;;;;;;2.45;1.80;;;;;;;4.64;100.00;93567.56;2100925;28;20443;-82
2023/09/26 04:19:50;;;;;;;3.38;1.70;;;;;;;4.53;100.00;93560.31;2099261;28;20075;-82
2023/09/26 04:21:02;;;;;;;2.05;1.70;;;;;;;4.57;100.00;93556.94;2103617;28;20028;-83
2023/09/26 04:22:03;;;;;;;2.17;1.60;;;;;;;4.53;100.00;93562.22;2105930;28;20112;-82
2023/09/26 04:23:04;;;;;;;3.25;1.77;;;;;;;4.50;100.00;93568.22;2089333;28;20573;-83
2023/09/26 04:24:06;;;;;;;4.32;1.60;;;;;;;4.51;100.00;93559.91;2102664;28;20058;-82
2023/09/26 04:25:07;;;;;;;2.38;1.80;;;;;;;4.53;100.00;93560.31;2105996;28;20028;-82
2023/09/26 04:26:14;;;;;;;2.53;1.70;;;;;;;4.49;100.00;93556.88;2114278;28;20380;-83
2023/09/26 04:27:16;;;;;;;4.45;1.80;;;;;;;4.48;100.00;93559.91;2106661;28;20098;-82
2023/09/26 04:28:17;;;;;;;2.05;1.63;;;;;;;4.50;100.00;93547.81;2114458;28;20024;-82
2023/09/26 04:29:18;;;;;;;3.38;1.85;;;;;;;4.47;100.00;93553.81;2114199;28;20035;-83
2023/09/26 04:30:19;;;;;;;3.80;1.90;;;;;;;4.49;100.00;93551.59;2101628;28;20425;-82
2023/09/26 04:31:20;;;;;;;2.47;1.95;;;;;;;4.48;100.00;93550.06;2097531;28;20033;-83
2023/09/26 04:32:21;;;;;;;4.38;2.38;;;;;;;4.52;100.00;93552.72;2093315;28;20136;-83
2023/09/26 04:33:22;;;;;;;3.70;1.95;;;;;;;4.50;100.00;93550.44;2089406;28;20059;-83
2023/09/26 04:34:26;;;;;;;4.50;2.88;;;;;;;4.49;100.00;93556.13;2113379;28;20408;-82
2023/09/26 04:35:27;;;;;;;2.25;2.03;;;;;;;4.44;100.00;93549.28;2114190;28;20062;-82
2023/09/26 04:36:31;;;;;;;3.40;2.25;;;;;;;4.43;100.00;93554.91;2098392;28;20074;-83
2023/09/26 04:37:32;;;;;;;4.88;2.25;;;;;;;4.46;100.00;93551.53;2111632;28;20024;-82
2023/09/26 04:38:33;;;;;;;4.78;2.13;;;;;;;4.49;100.00;93548.19;2108614;28;20093;-82
2023/09/26 04:39:34;;;;;;;3.08;2.08;;;;;;;4.38;100.00;93545.44;2095956;28;20051;-82
2023/09/26 04:40:35;;;;;;;4.38;2.42;;;;;;;4.46;100.00;93551.53;2097426;28;20048;-82
2023/09/26 04:41:36;;;;;;;7.53;2.58;;;;;;;4.48;100.00;93542.13;2097482;28;20158;-82
2023/09/26 04:42:45;;;;;;;6.65;2.00;;;;;;;4.55;100.00;93547.47;2090917;28;20021;-82
2023/09/26 04:43:46;;;;;;;2.90;1.90;;;;;;;4.50;100.00;93544.41;2100875;28;20024;-82
2023/09/26 04:44:47;;;;;;;4.10;2.00;;;;;;;4.49;100.00;93545.53;2097671;28;20024;-82
2023/09/26 04:45:48;;;;;;;4.68;2.15;;;;;;;4.48;100.00;93542.13;2091418;28;20029;-82
2023/09/26 04:46:49;;;;;;;3.33;2.00;;;;;;;4.50;100.00;93537.22;2089059;28;20501;-82
2023/09/26 04:47:50;;;;;;;4.80;2.00;;;;;;;4.49;100.00;93546.28;2105587;28;20155;-82
2023/09/26 04:48:51;;;;;;;3.85;2.15;;;;;;;4.54;100.00;93545.19;2111351;28;20439;-83
2023/09/26 04:49:52;;;;;;;2.10;1.80;;;;;;;4.49;100.00;93538.34;2099916;28;20055;-82
2023/09/26 04:50:54;;;;;;;2.85;2.00;;;;;;;4.43;100.00;93550.38;2103207;28;20073;-83
2023/09/26 04:51:56;;;;;;;3.60;1.90;;;;;;;4.50;100.00;93544.41;2114148;28;20110;-82